createdAt,value
2018-07-06T00:00:37.420Z,17.50
2018-07-06T00:03:10.231Z,17.40
2018-07-06T00:05:42.935Z,17.40
2018-07-06T00:08:15.676Z,17.30
2018-07-06T00:10:48.216Z,17.30
2018-07-06T00:13:20.740Z,17.30
2018-07-06T00:15:53.387Z,17.30
2018-07-06T00:18:26.195Z,17.20
2018-07-06T00:20:58.820Z,17.20
2018-07-06T00:23:31.660Z,17.10
2018-07-06T00:26:04.251Z,17.00
2018-07-06T00:28:37.124Z,17.00
2018-07-06T00:31:09.739Z,16.90
2018-07-06T00:33:42.416Z,16.80
2018-07-06T00:36:14.979Z,16.80
2018-07-06T00:38:47.766Z,16.70
2018-07-06T00:41:20.491Z,16.70
2018-07-06T00:43:53.050Z,16.70
2018-07-06T00:46:25.716Z,16.70
2018-07-06T00:48:58.380Z,16.50
2018-07-06T00:51:30.951Z,16.60
2018-07-06T00:54:03.688Z,16.50
2018-07-06T00:56:36.360Z,16.50
2018-07-06T00:59:09.056Z,16.50
2018-07-06T01:01:41.763Z,16.40
2018-07-06T01:04:14.391Z,16.30
2018-07-06T01:06:46.955Z,16.30
2018-07-06T01:09:19.859Z,16.20
2018-07-06T01:11:53.212Z,16.10
2018-07-06T01:14:26.609Z,16.10
2018-07-06T01:16:59.328Z,16.00
2018-07-06T01:19:32.024Z,16.00
2018-07-06T01:22:04.688Z,15.90
2018-07-06T01:24:37.251Z,15.80
2018-07-06T01:27:09.853Z,15.70
2018-07-06T01:32:09.336Z,15.70
2018-07-06T01:34:41.920Z,15.60
2018-07-06T01:37:14.596Z,15.70
2018-07-06T01:39:47.203Z,15.60
2018-07-06T01:42:19.759Z,15.60
2018-07-06T01:44:52.495Z,15.40
2018-07-06T01:47:25.486Z,15.40
2018-07-06T01:49:58.084Z,15.30
2018-07-06T01:52:31.060Z,15.20
2018-07-06T01:55:03.713Z,15.20
2018-07-06T02:00:03.360Z,15.10
2018-07-06T02:02:36.072Z,15.10
2018-07-06T02:05:09.131Z,15.10
2018-07-06T02:07:41.855Z,15.00
2018-07-06T02:10:14.671Z,15.00
2018-07-06T02:12:47.380Z,15.00
2018-07-06T02:15:19.984Z,15.00
2018-07-06T02:17:52.504Z,14.90
2018-07-06T02:20:25.198Z,14.90
2018-07-06T02:22:57.867Z,14.80
2018-07-06T02:25:30.533Z,14.70
2018-07-06T02:28:03.222Z,14.70
2018-07-06T02:30:35.893Z,14.70
2018-07-06T02:33:08.526Z,14.60
2018-07-06T02:35:41.300Z,14.60
2018-07-06T02:38:13.900Z,14.50
2018-07-06T02:40:46.779Z,14.70
2018-07-06T02:43:19.504Z,14.90
2018-07-06T02:45:52.067Z,14.80
2018-07-06T02:48:24.735Z,14.90
2018-07-06T02:50:57.334Z,15.00
2018-07-06T02:53:30.028Z,15.10
2018-07-06T02:56:02.817Z,15.10
2018-07-06T02:58:35.287Z,15.20
2018-07-06T03:01:07.855Z,15.20
2018-07-06T03:03:40.508Z,15.20
2018-07-06T03:06:13.111Z,15.20
2018-07-06T03:08:45.608Z,15.30
2018-07-06T03:11:18.620Z,15.50
2018-07-06T03:13:51.218Z,15.60
2018-07-06T03:16:23.943Z,15.50
2018-07-06T03:18:56.476Z,15.50
2018-07-06T03:21:29.107Z,15.60
2018-07-06T03:24:01.755Z,15.60
2018-07-06T03:26:34.480Z,15.70
2018-07-06T03:29:07.123Z,15.70
2018-07-06T03:31:39.848Z,15.70
2018-07-06T03:34:12.331Z,15.80
2018-07-06T03:36:45.214Z,15.80
2018-07-06T03:39:17.948Z,15.90
2018-07-06T03:41:50.987Z,15.90
2018-07-06T03:44:23.668Z,15.90
2018-07-06T03:46:56.655Z,15.90
2018-07-06T03:49:29.383Z,15.90
2018-07-06T03:52:02.112Z,16.00
2018-07-06T03:54:35.056Z,16.10
2018-07-06T03:57:07.654Z,16.10
2018-07-06T03:59:40.179Z,16.00
2018-07-06T04:02:12.931Z,15.90
2018-07-06T04:04:45.491Z,15.80
2018-07-06T04:07:18.511Z,15.70
2018-07-06T04:09:51.003Z,15.80
2018-07-06T04:12:23.856Z,15.80
2018-07-06T04:14:56.392Z,15.90
2018-07-06T04:17:29.227Z,16.00
2018-07-06T04:20:01.752Z,15.90
2018-07-06T04:22:34.692Z,15.80
2018-07-06T04:25:07.566Z,15.90
2018-07-06T04:27:40.459Z,15.90
2018-07-06T04:30:13.099Z,15.90
2018-07-06T04:32:45.723Z,15.90
2018-07-06T04:35:18.592Z,16.00
2018-07-06T04:37:51.452Z,16.10
2018-07-06T04:40:23.992Z,16.00
2018-07-06T04:42:56.499Z,16.00
2018-07-06T04:45:29.156Z,16.00
2018-07-06T04:48:02.300Z,16.00
2018-07-06T04:50:34.883Z,16.10
2018-07-06T04:53:07.580Z,16.10
2018-07-06T04:55:40.199Z,16.10
2018-07-06T04:58:12.915Z,16.10
2018-07-06T05:00:45.551Z,16.20
2018-07-06T05:03:18.195Z,16.20
2018-07-06T05:05:50.843Z,16.40
2018-07-06T05:08:23.547Z,16.50
2018-07-06T05:10:56.028Z,16.50
2018-07-06T05:13:28.568Z,16.40
2018-07-06T05:16:01.371Z,16.60
2018-07-06T05:18:33.932Z,16.70
2018-07-06T05:21:06.475Z,17.00
2018-07-06T05:23:39.192Z,17.20
2018-07-06T05:26:11.836Z,17.00
2018-07-06T05:28:44.319Z,17.00
2018-07-06T05:31:17.016Z,17.10
2018-07-06T05:33:49.612Z,17.30
2018-07-06T05:36:22.132Z,17.40
2018-07-06T05:38:54.903Z,17.50
2018-07-06T05:41:27.492Z,17.50
2018-07-06T05:44:00.108Z,17.50
2018-07-06T05:46:32.930Z,17.40
2018-07-06T05:49:05.692Z,17.50
2018-07-06T05:51:39.160Z,17.60
2018-07-06T05:54:11.881Z,17.50
2018-07-06T05:56:44.792Z,17.60
2018-07-06T05:59:17.626Z,17.70
2018-07-06T06:01:50.219Z,18.00
2018-07-06T06:04:23.020Z,18.10
2018-07-06T06:06:55.771Z,18.20
2018-07-06T06:11:49.563Z,18.10
2018-07-06T06:14:16.440Z,18.20
2018-07-06T06:16:43.331Z,18.30
2018-07-06T06:19:10.204Z,18.40
2018-07-06T06:21:37.101Z,18.40
2018-07-06T06:24:03.975Z,18.60
2018-07-06T06:28:58.823Z,18.50
2018-07-06T06:31:26.517Z,18.50
2018-07-06T06:33:53.721Z,18.60
2018-07-06T06:36:20.659Z,18.70
2018-07-06T06:38:48.146Z,18.90
2018-07-06T06:41:15.047Z,19.00
2018-07-06T06:43:41.916Z,19.00
2018-07-06T06:46:08.915Z,19.00
2018-07-06T06:48:35.867Z,19.00
2018-07-06T06:51:02.763Z,18.90
2018-07-06T06:53:29.667Z,18.90
2018-07-06T06:55:56.567Z,18.80
2018-07-06T06:58:23.452Z,18.90
2018-07-06T07:00:50.794Z,18.60
2018-07-06T07:03:17.668Z,18.60
2018-07-06T07:05:44.604Z,18.70
2018-07-06T07:08:11.493Z,18.70
2018-07-06T07:10:38.372Z,18.70
2018-07-06T07:13:05.271Z,18.80
2018-07-06T07:15:32.149Z,18.90
2018-07-06T07:17:59.051Z,19.00
2018-07-06T07:20:25.940Z,19.20
2018-07-06T07:22:52.848Z,19.30
2018-07-06T07:25:19.729Z,19.50
2018-07-06T07:27:46.651Z,19.60
2018-07-06T07:30:13.802Z,19.70
2018-07-06T07:32:40.704Z,19.90
2018-07-06T07:35:07.582Z,20.10
2018-07-06T07:37:34.504Z,20.40
2018-07-06T07:40:01.392Z,20.40
2018-07-06T07:42:28.330Z,20.50
2018-07-06T07:44:55.215Z,20.60
2018-07-06T07:47:22.116Z,20.70
2018-07-06T07:49:48.996Z,20.60
2018-07-06T07:52:21.596Z,20.50
2018-07-06T07:54:49.838Z,20.50
2018-07-06T07:57:16.738Z,20.40
2018-07-06T07:59:43.915Z,20.50
2018-07-06T08:02:10.812Z,20.70
2018-07-06T08:04:37.688Z,20.90
2018-07-06T08:07:04.585Z,21.40
2018-07-06T08:09:32.193Z,21.50
2018-07-06T08:12:00.287Z,21.80
2018-07-06T08:14:27.530Z,22.30
2018-07-06T08:16:54.479Z,22.60
2018-07-06T08:19:21.761Z,22.30
2018-07-06T08:21:48.779Z,22.50
2018-07-06T08:24:16.259Z,23.00
2018-07-06T08:26:43.127Z,23.40
2018-07-06T08:29:10.024Z,23.80
2018-07-06T08:31:36.945Z,24.20
2018-07-06T08:34:09.495Z,24.20
2018-07-06T08:37:46.434Z,23.80
2018-07-06T08:40:13.595Z,23.90
2018-07-06T08:45:10.139Z,23.60
2018-07-06T08:47:37.036Z,23.50
2018-07-06T08:50:04.436Z,23.60
2018-07-06T08:52:31.323Z,23.90
2018-07-06T08:54:58.235Z,23.70
2018-07-06T08:57:26.409Z,24.00
2018-07-06T08:59:53.658Z,24.10
2018-07-06T09:02:20.916Z,24.40
2018-07-06T09:04:48.475Z,24.50
2018-07-06T09:07:15.316Z,24.40
2018-07-06T09:09:42.224Z,24.30
2018-07-06T09:14:37.303Z,24.90
2018-07-06T09:17:04.189Z,26.10
2018-07-06T09:19:31.286Z,28.00
2018-07-06T09:21:57.991Z,27.30
2018-07-06T09:24:25.208Z,26.70
2018-07-06T09:26:52.087Z,26.50
2018-07-06T09:29:19.009Z,27.00
2018-07-06T09:31:46.103Z,27.20
2018-07-06T09:34:13.000Z,27.10
2018-07-06T09:36:40.615Z,26.90
2018-07-06T09:39:07.899Z,26.70
2018-07-06T09:41:35.236Z,26.80
2018-07-06T09:44:02.135Z,27.00
2018-07-06T09:46:29.024Z,26.90
2018-07-06T09:48:55.927Z,27.10
2018-07-06T09:51:22.895Z,27.40
2018-07-06T09:53:49.796Z,27.40
2018-07-06T09:56:16.663Z,27.40
2018-07-06T09:58:43.568Z,27.50
2018-07-06T10:01:10.448Z,27.50
2018-07-06T10:03:37.350Z,27.60
2018-07-06T10:06:04.460Z,27.40
2018-07-06T10:08:31.359Z,26.70
2018-07-06T10:10:58.245Z,26.90
2018-07-06T10:13:25.181Z,27.70
2018-07-06T10:15:52.128Z,27.80
2018-07-06T10:18:19.035Z,27.90
2018-07-06T10:20:45.915Z,27.90
2018-07-06T10:23:12.819Z,27.90
2018-07-06T10:25:39.728Z,27.50
2018-07-06T10:28:12.433Z,27.40
2018-07-06T10:31:44.120Z,27.30
2018-07-06T10:34:10.996Z,27.10
2018-07-06T10:36:37.960Z,27.90
2018-07-06T10:39:04.999Z,28.50
2018-07-06T10:41:31.936Z,28.90
2018-07-06T10:43:58.815Z,30.30
2018-07-06T10:46:25.718Z,30.80
2018-07-06T10:48:52.591Z,30.90
2018-07-06T10:51:19.498Z,31.30
2018-07-06T10:53:46.687Z,32.10
2018-07-06T10:56:13.588Z,31.90
2018-07-06T10:58:40.478Z,31.80
2018-07-06T11:01:07.374Z,32.50
2018-07-06T11:06:01.151Z,31.40
2018-07-06T11:08:28.028Z,32.90
2018-07-06T11:10:54.927Z,33.60
2018-07-06T11:13:21.803Z,32.40
2018-07-06T11:15:48.703Z,30.70
2018-07-06T11:18:15.575Z,29.80
2018-07-06T11:20:42.687Z,29.10
2018-07-06T11:23:09.584Z,28.60
2018-07-06T11:25:36.463Z,28.20
2018-07-06T11:28:03.368Z,27.40
2018-07-06T11:30:30.264Z,26.80
2018-07-06T11:32:57.159Z,26.40
2018-07-06T11:35:24.361Z,26.90
2018-07-06T11:37:51.355Z,27.30
2018-07-06T11:40:18.192Z,28.10
2018-07-06T11:42:45.101Z,28.80
2018-07-06T11:45:12.009Z,28.20
2018-07-06T11:50:05.780Z,27.00
2018-07-06T11:52:32.680Z,26.40
2018-07-06T11:54:59.836Z,26.20
2018-07-06T11:57:26.735Z,25.60
2018-07-06T11:59:53.623Z,25.20
2018-07-06T12:02:20.519Z,25.00
2018-07-06T12:04:47.391Z,24.70
2018-07-06T12:07:14.288Z,24.70
2018-07-06T12:09:41.164Z,24.50
2018-07-06T12:12:08.067Z,24.30
2018-07-06T12:14:34.943Z,24.30
2018-07-06T12:17:01.843Z,24.40
2018-07-06T12:19:28.748Z,24.70
2018-07-06T12:21:55.650Z,25.00
2018-07-06T12:24:22.528Z,25.70
2018-07-06T12:26:49.431Z,26.10
2018-07-06T12:29:16.749Z,26.30
2018-07-06T12:31:43.579Z,26.30
2018-07-06T12:34:10.490Z,25.80
2018-07-06T12:36:37.381Z,25.10
2018-07-06T12:39:04.979Z,24.90
2018-07-06T12:41:31.861Z,24.80
2018-07-06T12:43:58.763Z,24.50
2018-07-06T12:46:25.864Z,24.40
2018-07-06T12:48:52.841Z,24.60
2018-07-06T12:51:19.671Z,24.70
2018-07-06T12:53:46.567Z,25.00
2018-07-06T12:56:13.443Z,25.40
2018-07-06T13:01:07.251Z,25.60
2018-07-06T13:03:34.152Z,25.80
2018-07-06T13:06:01.056Z,25.70
2018-07-06T13:08:27.955Z,25.50
2018-07-06T13:10:54.832Z,25.50
2018-07-06T13:13:21.728Z,25.60
2018-07-06T13:15:48.599Z,25.30
2018-07-06T13:18:15.498Z,25.00
2018-07-06T13:20:42.376Z,24.80
2018-07-06T13:23:09.331Z,24.80
2018-07-06T13:25:36.204Z,25.30
2018-07-06T13:28:03.111Z,25.80
2018-07-06T13:30:30.005Z,25.90
2018-07-06T13:32:56.908Z,25.90
2018-07-06T13:35:23.795Z,25.90
2018-07-06T13:37:50.774Z,26.00
2018-07-06T13:40:17.696Z,27.50
2018-07-06T13:42:44.631Z,29.20
2018-07-06T13:45:11.511Z,30.80
2018-07-06T13:47:38.387Z,30.90
2018-07-06T13:50:05.595Z,31.00
2018-07-06T13:52:32.691Z,31.80
2018-07-06T13:54:59.600Z,32.50
2018-07-06T13:57:26.499Z,30.70
2018-07-06T13:59:54.028Z,30.10
2018-07-06T14:04:47.836Z,31.70
2018-07-06T14:07:14.741Z,31.70
2018-07-06T14:09:41.621Z,31.80
2018-07-06T14:12:08.520Z,30.60
2018-07-06T14:14:35.391Z,29.60
2018-07-06T14:17:02.283Z,29.00
2018-07-06T14:19:29.192Z,28.30
2018-07-06T14:21:56.107Z,29.50
2018-07-06T14:24:23.004Z,30.50
2018-07-06T14:26:49.879Z,30.20
2018-07-06T14:29:16.791Z,29.50
2018-07-06T14:31:43.947Z,30.00
2018-07-06T14:34:11.131Z,30.20
2018-07-06T14:36:38.005Z,29.90
2018-07-06T14:39:05.391Z,29.60
2018-07-06T14:41:32.568Z,29.70
2018-07-06T14:43:59.465Z,29.70
2018-07-06T14:46:26.336Z,29.70
2018-07-06T14:48:53.224Z,29.60
2018-07-06T14:51:20.087Z,29.40
2018-07-06T14:53:46.976Z,29.40
2018-07-06T14:56:13.918Z,29.50
2018-07-06T14:58:40.824Z,29.60
2018-07-06T15:01:07.699Z,29.30
2018-07-06T15:03:34.587Z,28.30
2018-07-06T15:06:01.464Z,29.10
2018-07-06T15:08:28.352Z,29.50
2018-07-06T15:10:55.224Z,28.60
2018-07-06T15:13:22.146Z,28.40
2018-07-06T15:15:49.019Z,28.70
2018-07-06T15:18:15.976Z,28.80
2018-07-06T15:20:42.831Z,28.80
2018-07-06T15:23:09.734Z,28.50
2018-07-06T15:25:36.611Z,28.40
2018-07-06T15:28:03.509Z,28.90
2018-07-06T15:30:30.398Z,28.50
2018-07-06T15:32:57.291Z,28.40
2018-07-06T15:35:24.175Z,28.50
2018-07-06T15:37:51.224Z,28.70
2018-07-06T15:40:18.099Z,29.10
2018-07-06T15:42:45.021Z,29.20
2018-07-06T15:45:11.896Z,27.90
2018-07-06T15:47:38.792Z,27.10
2018-07-06T15:50:05.663Z,27.00
2018-07-06T15:54:59.424Z,26.00
2018-07-06T15:57:26.339Z,26.30
2018-07-06T15:59:53.204Z,26.40
2018-07-06T16:02:20.430Z,26.50
2018-07-06T16:04:47.527Z,26.20
2018-07-06T16:07:14.400Z,26.10
2018-07-06T16:09:41.294Z,26.10
2018-07-06T16:12:08.155Z,25.60
2018-07-06T16:14:35.940Z,25.70
2018-07-06T16:17:02.807Z,25.00
2018-07-06T16:19:29.793Z,24.90
2018-07-06T16:21:56.663Z,24.80
2018-07-06T16:24:23.559Z,24.70
2018-07-06T16:26:50.652Z,24.50
2018-07-06T16:29:17.592Z,24.10
2018-07-06T16:31:44.475Z,23.60
2018-07-06T16:34:11.392Z,23.50
2018-07-06T16:36:38.295Z,23.50
2018-07-06T16:39:05.208Z,23.50
2018-07-06T16:41:32.107Z,23.50
2018-07-06T16:43:59.120Z,23.40
2018-07-06T16:46:26.000Z,23.30
2018-07-06T16:48:52.879Z,23.20
2018-07-06T16:51:19.775Z,23.10
2018-07-06T16:53:46.653Z,23.00
2018-07-06T16:56:13.551Z,22.90
2018-07-06T16:58:40.431Z,22.80
2018-07-06T17:01:07.453Z,22.80
2018-07-06T17:03:34.252Z,22.70
2018-07-06T17:06:01.162Z,22.70
2018-07-06T17:08:28.040Z,22.60
2018-07-06T17:10:54.940Z,22.60
2018-07-06T17:13:21.827Z,22.60
2018-07-06T17:15:48.723Z,22.50
2018-07-06T17:18:15.600Z,22.40
2018-07-06T17:20:42.495Z,22.40
2018-07-06T17:23:09.370Z,22.30
2018-07-06T17:25:36.271Z,22.30
2018-07-06T17:28:03.141Z,22.20
2018-07-06T17:30:30.067Z,22.10
2018-07-06T17:32:56.948Z,22.10
2018-07-06T17:35:23.850Z,22.10
2018-07-06T17:37:50.736Z,22.00
2018-07-06T17:40:17.857Z,22.00
2018-07-06T17:42:44.734Z,22.00
2018-07-06T17:45:11.628Z,21.80
2018-07-06T17:47:38.563Z,21.70
2018-07-06T17:50:05.525Z,21.70
2018-07-06T17:52:32.452Z,21.60
2018-07-06T17:54:59.392Z,21.50
2018-07-06T17:57:26.296Z,21.40
2018-07-06T17:59:53.172Z,21.30
2018-07-06T18:02:20.355Z,21.30
2018-07-06T18:04:47.239Z,21.20
2018-07-06T18:07:14.160Z,21.20
2018-07-06T18:09:41.052Z,21.20
2018-07-06T18:12:08.056Z,21.10
2018-07-06T18:14:34.936Z,21.10
2018-07-06T18:17:02.050Z,21.00
2018-07-06T18:19:28.927Z,21.00
2018-07-06T18:21:55.852Z,20.90
2018-07-06T18:24:22.727Z,20.80
2018-07-06T18:26:49.629Z,20.70
2018-07-06T18:29:16.516Z,20.60
2018-07-06T18:31:43.447Z,20.60
2018-07-06T18:34:10.323Z,20.50
2018-07-06T18:36:37.228Z,20.40
2018-07-06T18:39:04.751Z,20.40
2018-07-06T18:41:31.653Z,20.30
2018-07-06T18:43:58.540Z,20.20
2018-07-06T18:46:25.440Z,20.10
2018-07-06T18:48:52.436Z,20.00
2018-07-06T18:51:19.615Z,20.00
2018-07-06T18:53:46.494Z,20.00
2018-07-06T18:56:13.387Z,19.90
2018-07-06T18:58:40.310Z,19.80
2018-07-06T19:01:07.210Z,19.70
2018-07-06T19:03:34.083Z,19.60
2018-07-06T19:06:00.988Z,19.50
2018-07-06T19:08:27.867Z,19.40
2018-07-06T19:10:55.088Z,19.40
2018-07-06T19:13:21.996Z,19.30
2018-07-06T19:15:48.898Z,19.20
2018-07-06T19:18:15.777Z,19.10
2018-07-06T19:20:42.957Z,19.00
2018-07-06T19:23:09.834Z,18.90
2018-07-06T19:28:03.607Z,18.70
2018-07-06T19:30:30.487Z,18.60
2018-07-06T19:32:57.386Z,18.50
2018-07-06T19:35:24.256Z,18.60
2018-07-06T19:37:51.151Z,18.50
2018-07-06T19:40:18.033Z,18.40
2018-07-06T19:42:44.923Z,18.20
2018-07-06T19:45:12.094Z,18.10
2018-07-06T19:47:38.995Z,18.00
2018-07-06T19:50:05.863Z,17.90
2018-07-06T19:52:32.763Z,17.90
2018-07-06T19:54:59.638Z,17.80
2018-07-06T19:57:26.555Z,17.90
2018-07-06T19:59:53.436Z,17.80
2018-07-06T20:02:20.335Z,17.70
2018-07-06T20:04:47.207Z,17.70
2018-07-06T20:07:14.099Z,17.70
2018-07-06T20:09:40.980Z,17.60
2018-07-06T20:12:07.894Z,17.60
2018-07-06T20:14:34.768Z,17.60
2018-07-06T20:17:01.644Z,17.50
2018-07-06T20:19:28.836Z,17.50
2018-07-06T20:21:55.863Z,17.40
2018-07-06T20:24:22.763Z,17.30
2018-07-06T20:26:49.855Z,17.20
2018-07-06T20:29:16.760Z,17.20
2018-07-06T20:31:43.652Z,17.10
2018-07-06T20:34:10.670Z,17.10
2018-07-06T20:36:37.738Z,17.00
2018-07-06T20:39:05.060Z,17.00
2018-07-06T20:41:32.002Z,17.00
2018-07-06T20:43:58.870Z,17.00
2018-07-06T20:46:25.763Z,17.00
2018-07-06T20:48:52.871Z,16.90
2018-07-06T20:51:19.764Z,16.90
2018-07-06T20:53:46.892Z,16.90
2018-07-06T20:56:13.852Z,16.80
2018-07-06T20:58:40.728Z,16.80
2018-07-06T21:01:07.955Z,16.70
2018-07-06T21:03:34.824Z,16.60
2018-07-06T21:06:01.953Z,16.50
2018-07-06T21:08:28.865Z,16.40
2018-07-06T21:10:55.751Z,16.30
2018-07-06T21:15:49.528Z,16.10
2018-07-06T21:18:16.450Z,16.00
2018-07-06T21:20:43.355Z,15.90
2018-07-06T21:23:14.231Z,15.70
2018-07-06T21:25:41.695Z,15.70
2018-07-06T21:28:08.568Z,15.70
2018-07-06T21:30:35.670Z,15.80
2018-07-06T21:33:02.567Z,15.70
2018-07-06T21:35:29.447Z,15.60
2018-07-06T21:37:56.335Z,15.50
2018-07-06T21:40:23.248Z,15.40
2018-07-06T21:42:50.151Z,15.40
2018-07-06T21:45:17.059Z,15.50
2018-07-06T21:47:43.987Z,15.50
2018-07-06T21:50:10.856Z,15.60
2018-07-06T21:52:37.859Z,15.50
2018-07-06T21:55:04.733Z,15.40
2018-07-06T21:57:31.631Z,15.40
2018-07-06T21:59:58.609Z,15.30
2018-07-06T22:02:25.508Z,15.30
2018-07-06T22:04:52.375Z,15.20
2018-07-06T22:07:19.271Z,15.20
2018-07-06T22:09:46.144Z,15.20
2018-07-06T22:12:13.470Z,15.00
2018-07-06T22:14:40.696Z,14.80
2018-07-06T22:17:07.869Z,14.70
2018-07-06T22:19:34.739Z,14.70
2018-07-06T22:22:01.652Z,14.80
2018-07-06T22:24:28.524Z,14.80
2018-07-06T22:26:55.472Z,14.80
2018-07-06T22:29:22.375Z,14.70
2018-07-06T22:31:49.300Z,14.80
2018-07-06T22:34:16.199Z,14.70
2018-07-06T22:36:43.307Z,14.70
2018-07-06T22:39:10.199Z,14.60
2018-07-06T22:41:37.072Z,14.50
2018-07-06T22:44:03.967Z,14.40
2018-07-06T22:46:30.836Z,14.20
2018-07-06T22:48:57.733Z,14.10
2018-07-06T22:51:24.603Z,14.00
2018-07-06T22:53:51.497Z,14.00
2018-07-06T22:56:18.367Z,13.90
2018-07-06T22:58:45.244Z,14.00
2018-07-06T23:01:12.148Z,14.00
2018-07-06T23:03:39.015Z,13.90
2018-07-06T23:06:05.908Z,13.90
2018-07-06T23:08:32.779Z,14.00
2018-07-06T23:10:59.707Z,14.10
2018-07-06T23:13:26.582Z,14.20
2018-07-06T23:15:53.480Z,14.20
2018-07-06T23:18:20.362Z,14.10
2018-07-06T23:20:47.256Z,14.00
2018-07-06T23:23:14.158Z,13.90
2018-07-06T23:25:46.162Z,13.80
2018-07-06T23:28:13.266Z,13.70
2018-07-06T23:30:40.219Z,13.70
2018-07-06T23:33:07.784Z,13.70
2018-07-06T23:35:34.939Z,13.60
2018-07-06T23:38:02.167Z,13.70
2018-07-06T23:40:29.244Z,13.70
2018-07-06T23:42:56.164Z,13.60
2018-07-06T23:45:23.504Z,13.60
2018-07-06T23:47:50.379Z,13.60
2018-07-06T23:50:17.858Z,13.60
2018-07-06T23:52:44.739Z,13.70
2018-07-06T23:55:12.771Z,13.80
2018-07-06T23:57:39.647Z,13.80
